createdAt,value
2022-08-22T00:00:43.082Z,0.9
2022-08-22T00:02:51.806Z,1.3
2022-08-22T00:03:05.773Z,0.9
2022-08-22T00:03:45.065Z,1
2022-08-22T00:06:47.026Z,0.8
2022-08-22T00:09:48.989Z,0.9
2022-08-22T00:12:50.944Z,0.9
2022-08-22T00:15:52.921Z,0.8
2022-08-22T00:18:54.881Z,1.2
2022-08-22T00:21:56.849Z,1.1
2022-08-22T00:24:58.815Z,1.1
2022-08-22T00:28:00.943Z,0.8
2022-08-22T00:31:02.758Z,0.8
2022-08-22T00:34:04.726Z,1
2022-08-22T00:37:06.683Z,0.9
2022-08-22T00:40:08.747Z,0.9
2022-08-22T00:43:10.615Z,0.9
2022-08-22T00:46:12.578Z,1
2022-08-22T00:49:14.552Z,1
2022-08-22T00:52:16.515Z,0.8
2022-08-22T00:55:18.454Z,0.9
2022-08-22T00:58:20.438Z,1.1
2022-08-22T01:01:22.498Z,1.2
2022-08-22T01:04:24.361Z,1
2022-08-22T01:07:30.641Z,0.8
2022-08-22T01:10:28.294Z,0.8
2022-08-22T01:13:30.257Z,1.2
2022-08-22T01:16:32.205Z,1.1
2022-08-22T01:19:34.192Z,1
2022-08-22T01:22:36.183Z,1
2022-08-22T01:25:38.120Z,0.9
2022-08-22T01:28:40.073Z,1.1
2022-08-22T01:31:42.050Z,1
2022-08-22T01:34:44.010Z,0.7
2022-08-22T01:37:45.982Z,1.3
2022-08-22T01:40:53.661Z,1
2022-08-22T01:43:51.578Z,1.3
2022-08-22T01:46:51.887Z,1.1
2022-08-22T01:49:53.868Z,1
2022-08-22T01:52:55.823Z,1.2
2022-08-22T01:55:57.773Z,1
2022-08-22T01:58:59.841Z,0.8
2022-08-22T02:02:01.704Z,0.8
2022-08-22T02:05:03.692Z,0.9
2022-08-22T02:08:05.632Z,0.9
2022-08-22T02:11:07.620Z,1.2
2022-08-22T02:14:09.590Z,0.8
2022-08-22T02:17:11.548Z,1.2
2022-08-22T02:20:13.525Z,1.2
2022-08-22T02:23:15.485Z,1
2022-08-22T02:26:17.682Z,1.1
2022-08-22T02:29:19.422Z,1.1
2022-08-22T02:32:21.396Z,1
2022-08-22T02:35:23.374Z,1.1
2022-08-22T02:38:25.312Z,1
2022-08-22T02:41:27.279Z,0.9
2022-08-22T02:44:29.230Z,1.3
2022-08-22T02:47:31.214Z,0.9
2022-08-22T02:50:33.190Z,1.1
2022-08-22T02:53:35.133Z,0.9
2022-08-22T02:56:37.108Z,1
2022-08-22T02:59:39.072Z,1
2022-08-22T03:02:41.034Z,1.2
2022-08-22T03:05:43.004Z,1.2
2022-08-22T03:08:47.490Z,1.1
2022-08-22T03:11:46.945Z,1
2022-08-22T03:14:48.884Z,0.8
2022-08-22T03:17:50.866Z,0.9
2022-08-22T03:20:52.822Z,1.2
2022-08-22T03:23:54.789Z,1
2022-08-22T03:26:56.766Z,0.9
2022-08-22T03:29:58.714Z,1
2022-08-22T03:33:00.684Z,1.2
2022-08-22T03:36:02.642Z,1
2022-08-22T03:39:08.327Z,1.2
2022-08-22T03:42:06.604Z,1.1
2022-08-22T03:45:08.561Z,1.6
2022-08-22T03:48:10.598Z,1.2
2022-08-22T03:51:12.502Z,1.2
2022-08-22T03:54:14.458Z,1
2022-08-22T03:57:16.473Z,1.2
2022-08-22T04:00:18.424Z,1
2022-08-22T04:03:20.383Z,0.9
2022-08-22T04:06:22.352Z,1.1
2022-08-22T04:09:24.322Z,0.9
2022-08-22T04:12:26.283Z,1
2022-08-22T04:15:28.236Z,1.1
2022-08-22T04:18:31.246Z,1.3
2022-08-22T04:21:32.176Z,1.3
2022-08-22T04:24:34.134Z,1.2
2022-08-22T04:27:36.111Z,1.1
2022-08-22T04:30:38.053Z,1.2
2022-08-22T04:33:40.252Z,1.2
2022-08-22T04:36:42.002Z,1.4
2022-08-22T04:39:44.000Z,1.3
2022-08-22T04:42:45.913Z,1.5
2022-08-22T04:45:47.922Z,1
2022-08-22T04:48:49.855Z,1.2
2022-08-22T04:51:51.843Z,1.1
2022-08-22T04:54:53.791Z,1.2
2022-08-22T04:57:55.883Z,1
2022-08-22T05:00:57.728Z,1
2022-08-22T05:03:59.682Z,1.2
2022-08-22T05:07:01.654Z,1.1
2022-08-22T05:10:09.417Z,1.1
2022-08-22T05:13:05.591Z,1.3
2022-08-22T05:16:07.563Z,1.5
2022-08-22T05:19:12.068Z,1.1
2022-08-22T05:22:11.471Z,1.1
2022-08-22T05:25:13.430Z,1.3
2022-08-22T05:28:15.396Z,1.2
2022-08-22T05:31:17.369Z,1.4
2022-08-22T05:34:19.331Z,1.1
2022-08-22T05:37:21.292Z,1.3
2022-08-22T05:40:23.279Z,1.2
2022-08-22T05:43:25.222Z,1.4
2022-08-22T05:46:27.376Z,1.4
2022-08-22T05:49:29.152Z,1.3
2022-08-22T05:52:31.127Z,1
2022-08-22T05:55:33.095Z,1.1
2022-08-22T05:58:35.046Z,1.2
2022-08-22T06:01:37.107Z,1.1
2022-08-22T06:04:38.975Z,1.2
2022-08-22T06:07:41.066Z,1.1
2022-08-22T06:12:16.981Z,1.4
2022-08-22T06:15:20.877Z,1.5
2022-08-22T06:18:19.708Z,1.2
2022-08-22T06:21:21.672Z,1.4
2022-08-22T06:24:23.637Z,1.1
2022-08-22T06:27:25.626Z,1.4
2022-08-22T06:30:27.620Z,1.7
2022-08-22T06:33:29.541Z,1.4
2022-08-22T06:36:31.539Z,1.4
2022-08-22T06:39:33.494Z,1.3
2022-08-22T06:42:35.471Z,1.2
2022-08-22T06:45:37.429Z,1.5
2022-08-22T06:48:39.397Z,1.4
2022-08-22T06:51:41.360Z,1.6
2022-08-22T06:54:43.330Z,1.5
2022-08-22T06:57:45.294Z,1.3
2022-08-22T07:00:51.593Z,1.1
2022-08-22T07:03:49.267Z,1.3
2022-08-22T07:06:51.185Z,1.5
2022-08-22T07:09:53.153Z,1.4
2022-08-22T07:12:55.113Z,1.3
2022-08-22T07:15:57.080Z,1.8
2022-08-22T07:18:59.045Z,1.6
2022-08-22T07:22:01.011Z,1.4
2022-08-22T07:25:02.969Z,1.7
2022-08-22T07:28:04.982Z,1.4
2022-08-22T07:31:06.920Z,1.7
2022-08-22T07:34:08.880Z,1.5
2022-08-22T07:37:10.907Z,1.4
2022-08-22T07:40:12.840Z,1.4
2022-08-22T07:43:14.784Z,1.5
2022-08-22T07:46:16.753Z,1.4
2022-08-22T07:49:18.706Z,1.7
2022-08-22T07:52:20.681Z,1.4
2022-08-22T07:55:22.656Z,1.3
2022-08-22T07:58:24.625Z,1.7
2022-08-22T08:01:26.580Z,1.7
2022-08-22T08:04:28.537Z,1.5
2022-08-22T08:07:30.513Z,1.3
2022-08-22T08:10:32.510Z,1.5
2022-08-22T09:20:31.987Z,2.9
2022-08-22T09:23:33.953Z,2.3
2022-08-22T09:26:35.899Z,2.2
2022-08-22T09:29:51.650Z,2.2
2022-08-22T09:32:39.861Z,2.4
2022-08-22T09:33:52.697Z,2.5
2022-08-22T09:35:47.799Z,2.8
2022-08-22T09:38:49.745Z,2.5
2022-08-22T09:41:51.844Z,2.6
2022-08-22T09:44:53.677Z,2.2
2022-08-22T09:47:57.205Z,2.5
2022-08-22T09:51:04.838Z,2.4
2022-08-22T09:53:59.603Z,2.1
2022-08-22T09:57:01.566Z,2.3
2022-08-22T10:00:03.530Z,2.1
2022-08-22T10:03:05.487Z,2.3
2022-08-22T10:06:09.095Z,1.9
2022-08-22T10:09:09.433Z,2.1
2022-08-22T10:12:12.343Z,2.3
2022-08-22T10:15:13.372Z,2.4
2022-08-22T10:18:15.336Z,2.8
2022-08-22T10:21:17.326Z,2.3
2022-08-22T10:24:25.378Z,2.2
2022-08-22T10:27:21.235Z,2.2
2022-08-22T10:30:23.194Z,1.8
2022-08-22T10:33:25.153Z,1.8
2022-08-22T10:36:27.149Z,1.8
2022-08-22T10:39:29.096Z,1.9
2022-08-22T10:42:35.200Z,2.2
2022-08-22T10:45:35.462Z,2.1
2022-08-22T10:48:35.081Z,2
2022-08-22T10:51:36.966Z,2
2022-08-22T10:54:38.936Z,1.9
2022-08-22T10:57:41.131Z,1.7
2022-08-22T11:00:45.903Z,1.7
2022-08-22T11:03:44.830Z,1.6
2022-08-22T11:06:46.797Z,1.6
2022-08-22T11:09:48.758Z,1.5
2022-08-22T11:12:50.729Z,1.7
2022-08-22T11:42:02.323Z,1.4
2022-08-22T11:45:04.260Z,1.2
2022-08-22T11:48:06.226Z,1.6
2022-08-22T11:51:13.055Z,1.7
2022-08-22T11:54:10.165Z,1.6
2022-08-22T11:57:12.153Z,1.6
2022-08-22T12:00:14.096Z,1.8
2022-08-22T12:03:16.071Z,1.2
2022-08-22T12:06:18.063Z,1.4
2022-08-22T12:09:19.992Z,1.4
2022-08-22T12:12:21.970Z,1.3
2022-08-22T12:15:24.545Z,1.7
2022-08-22T12:18:25.925Z,1.5
2022-08-22T12:21:27.866Z,1.4
2022-08-22T12:24:29.823Z,1.1
2022-08-22T12:27:31.789Z,1.4
2022-08-22T12:36:25.154Z,1.1
2022-08-22T12:39:27.115Z,1.3
2022-08-22T12:42:29.074Z,1.3
2022-08-22T12:45:31.032Z,1.2
2022-08-22T12:48:33.002Z,1.5
2022-08-22T12:51:34.977Z,1.3
2022-08-22T12:54:36.935Z,1.2
2022-08-22T12:57:38.911Z,1.2
2022-08-22T13:00:41.606Z,1.2
2022-08-22T13:03:42.850Z,1.2
2022-08-22T13:06:48.583Z,1.4
2022-08-22T13:09:46.775Z,1.2
2022-08-22T13:12:48.728Z,1.2
2022-08-22T13:15:53.702Z,1.3
2022-08-22T13:18:53.637Z,1.2
2022-08-22T13:21:54.628Z,1.1
2022-08-22T13:24:56.582Z,1.6
2022-08-22T13:27:59.090Z,1.2
2022-08-22T13:31:00.499Z,1
2022-08-22T13:34:02.466Z,1.4
2022-08-22T13:37:04.440Z,1.5
2022-08-22T13:40:06.455Z,1.2
2022-08-22T13:43:08.365Z,1.4
2022-08-22T13:46:10.904Z,1.2
2022-08-22T13:49:12.296Z,1.7
2022-08-22T13:52:14.595Z,1.3
2022-08-22T13:55:16.228Z,1.2
2022-08-22T14:00:48.810Z,1
2022-08-22T14:03:49.826Z,1.2
2022-08-22T14:06:51.775Z,1.2
2022-08-22T14:09:54.284Z,1.1
2022-08-22T14:28:29.129Z,1.1
2022-08-22T15:03:16.763Z,1.2
2022-08-22T15:06:18.727Z,1
2022-08-22T15:09:20.690Z,1.6
2022-08-22T15:12:22.669Z,1.4
2022-08-22T15:15:24.618Z,1.5
2022-08-22T15:18:26.602Z,1.2
2022-08-22T15:21:28.568Z,1.6
2022-08-22T15:24:30.534Z,1.3
2022-08-22T15:27:32.488Z,1.2
2022-08-22T15:30:34.490Z,1.2
2022-08-22T15:33:36.439Z,1.4
2022-08-22T15:36:38.413Z,1.3
2022-08-22T15:39:40.372Z,1.2
2022-08-22T15:42:42.341Z,1.1
2022-08-22T15:45:44.310Z,1.1
2022-08-22T15:48:49.149Z,0.9
2022-08-22T15:51:48.266Z,1.1
2022-08-22T15:54:51.216Z,1.3
2022-08-22T15:57:52.184Z,1.3
2022-08-22T16:00:54.135Z,1.3
2022-08-22T16:03:56.120Z,1.2
2022-08-22T16:06:58.076Z,1.1
2022-08-22T16:10:00.020Z,1
2022-08-22T16:13:01.970Z,1.1
2022-08-22T16:16:03.951Z,1.6
2022-08-22T16:19:05.943Z,1.4
2022-08-22T16:22:07.914Z,1.4
2022-08-22T16:25:10.480Z,1.2
2022-08-22T16:28:11.946Z,1.3
2022-08-22T16:31:13.796Z,1.2
2022-08-22T16:34:15.746Z,1.2
2022-08-22T16:37:17.747Z,1.5
2022-08-22T16:40:19.750Z,1.3
2022-08-22T16:43:21.683Z,1.3
2022-08-22T16:46:23.660Z,1.4
2022-08-22T16:49:25.635Z,1.1
2022-08-22T16:52:27.594Z,1.1
2022-08-22T16:55:29.565Z,1.1
2022-08-22T16:58:44.878Z,1.1
2022-08-22T17:01:33.501Z,1.3
2022-08-22T17:04:35.458Z,1.1
2022-08-22T17:07:37.406Z,1.1
2022-08-22T17:10:39.390Z,1.1
2022-08-22T17:13:41.566Z,1.2
2022-08-22T17:16:43.327Z,1.2
2022-08-22T17:19:45.266Z,1.1
2022-08-22T17:22:47.259Z,1.4
2022-08-22T17:25:49.221Z,1.2
2022-08-22T17:28:51.197Z,1.2
2022-08-22T17:31:53.156Z,1.2
2022-08-22T17:34:55.130Z,1.1
2022-08-22T17:37:57.085Z,1.3
2022-08-22T17:40:59.046Z,1.1
2022-08-22T17:44:01.022Z,1
2022-08-22T17:47:02.992Z,1.3
2022-08-22T17:50:04.958Z,0.9
2022-08-22T17:53:06.954Z,1.3
2022-08-22T17:56:08.877Z,1.1
2022-08-22T17:59:10.834Z,1.3
2022-08-22T18:02:12.811Z,1.2
2022-08-22T18:05:14.767Z,0.9
2022-08-22T18:08:38.033Z,1.4
2022-08-22T18:11:18.703Z,1.2
2022-08-22T18:14:20.669Z,1.3
2022-08-22T18:17:22.628Z,1.2
2022-08-22T18:20:24.614Z,1.4
2022-08-22T18:23:35.760Z,1.3
2022-08-22T18:26:28.517Z,1.2
2022-08-22T18:29:30.502Z,1.6
2022-08-22T18:32:32.480Z,1.4
2022-08-22T18:35:34.422Z,1.6
2022-08-22T18:38:36.389Z,1.7
2022-08-22T18:41:38.349Z,1.5
2022-08-22T18:44:40.360Z,1.4
2022-08-22T18:47:42.317Z,1.4
2022-08-22T18:50:44.301Z,1.3
2022-08-22T18:53:46.270Z,1.5
2022-08-22T18:56:48.231Z,1.4
2022-08-22T18:59:50.200Z,1.7
2022-08-22T19:02:55.745Z,1.7
2022-08-22T19:05:54.107Z,2.2
2022-08-22T19:08:56.048Z,2
2022-08-22T19:11:58.001Z,1.5
2022-08-22T19:14:59.961Z,1.6
2022-08-22T19:18:01.916Z,1.5
2022-08-22T19:22:59.860Z,1.4
2022-08-22T19:26:01.832Z,1.6
2022-08-22T19:29:05.803Z,1.5
2022-08-22T19:32:05.984Z,1.6
2022-08-22T19:35:07.708Z,1.5
2022-08-22T19:38:09.665Z,1.5
2022-08-22T19:41:11.806Z,1.3
2022-08-22T19:44:13.579Z,1.4
2022-08-22T19:47:15.576Z,1.5
2022-08-22T19:50:17.919Z,1.4
2022-08-22T19:53:19.479Z,1.8
2022-08-22T19:56:21.445Z,1.7
2022-08-22T19:59:23.404Z,1.9
2022-08-22T20:02:25.375Z,1.8
2022-08-22T20:05:27.333Z,1.6
2022-08-22T20:08:29.298Z,1.7
2022-08-22T20:11:31.262Z,1.6
2022-08-22T20:14:33.229Z,1.5
2022-08-22T20:17:35.223Z,1.4
2022-08-22T20:20:37.155Z,1.6
2022-08-22T20:23:39.123Z,1.7
2022-08-22T20:26:57.511Z,1.7
2022-08-22T20:29:43.056Z,1.4
2022-08-22T20:32:45.040Z,1.6
2022-08-22T20:35:46.974Z,1.3
2022-08-22T20:38:55.821Z,1.5
2022-08-22T20:41:50.907Z,1.4
2022-08-22T20:44:53.402Z,1.3
2022-08-22T20:47:54.859Z,1.5
2022-08-22T20:50:56.799Z,1.6
2022-08-22T20:53:58.782Z,1.5
2022-08-22T20:57:00.734Z,1.6
2022-08-22T21:00:02.679Z,1.6
2022-08-22T21:03:04.642Z,1.7
2022-08-22T21:06:06.619Z,1.6
2022-08-22T21:09:08.595Z,1.1
2022-08-22T21:12:10.551Z,1.5
2022-08-22T21:15:12.511Z,1.3
2022-08-22T21:18:14.483Z,1.5
2022-08-22T21:21:17.162Z,1.8
2022-08-22T21:24:18.415Z,1.6
2022-08-22T21:27:20.377Z,1.3
2022-08-22T21:30:22.319Z,1.9
2022-08-22T21:33:24.302Z,1.6
2022-08-22T21:36:26.253Z,1.4
2022-08-22T21:39:28.211Z,1
2022-08-22T21:42:30.178Z,1.5
2022-08-22T21:45:32.136Z,1.8
2022-08-22T21:48:34.106Z,2
2022-08-22T21:51:36.043Z,1.7
2022-08-22T21:54:38.013Z,1.9
2022-08-22T21:57:39.980Z,1.7
2022-08-22T22:00:41.978Z,1.5
2022-08-22T22:03:43.895Z,1.3
2022-08-22T22:06:45.849Z,1.4
2022-08-22T22:09:52.984Z,1.5
2022-08-22T22:12:49.762Z,1.3
2022-08-22T22:15:51.747Z,1.6
2022-08-22T22:18:53.698Z,1.4
2022-08-22T22:21:55.661Z,1.6
2022-08-22T22:24:57.634Z,1.7
2022-08-22T22:27:59.704Z,1.3
2022-08-22T22:31:01.561Z,2
2022-08-22T22:34:03.504Z,1.4
2022-08-22T22:37:05.483Z,1.7
2022-08-22T22:40:07.594Z,1.6
2022-08-22T22:43:09.392Z,1.4
2022-08-22T22:46:11.359Z,1.4
2022-08-22T22:49:13.314Z,1.5
2022-08-22T22:52:15.280Z,1.3
2022-08-22T22:55:24.491Z,1.4
2022-08-22T22:58:19.200Z,1.3
2022-08-22T23:01:21.246Z,1.4
2022-08-22T23:04:23.139Z,1.3
2022-08-22T23:07:25.097Z,1.2
2022-08-22T23:10:27.064Z,1.3
2022-08-22T23:13:29.028Z,1.3
2022-08-22T23:16:35.126Z,1.3
2022-08-22T23:19:32.946Z,1.3
2022-08-22T23:22:34.928Z,1.3
2022-08-22T23:25:36.876Z,1.2
2022-08-22T23:28:38.831Z,1.2
2022-08-22T23:31:40.800Z,1.4
2022-08-22T23:34:42.788Z,1.5
2022-08-22T23:37:44.777Z,1.1
2022-08-22T23:40:46.734Z,1.4
2022-08-22T23:43:48.684Z,1.6
2022-08-22T23:46:50.650Z,1.4
2022-08-22T23:49:52.604Z,1.1
2022-08-22T23:52:54.585Z,1.3
2022-08-22T23:55:56.523Z,1.5
2022-08-22T23:58:58.487Z,1.7
